Terminal Aerodrome Forecast
Issued by NWS

Home | Current Version | Previous Version | Text Only | Print | Product List | Glossary On
Versions: 1 2 3 4 5 6 7 8 9 10 11 12 13 14 15 16 17
000
FTUS41 KBGM 281133
TAFELM
TAF
KELM 281133Z 2812/2912 20008KT P6SM SCT050 BKN150
      TEMPO 2812/2813 3SM BR
     FM281800 21010KT P6SM BKN050 PROB30 2821/2824 4SM TSRA BR
      OVC025CB
     FM290000 19005KT P6SM SCT040 BKN070
     FM290600 34005KT P6SM SCT015=

USA.gov is the U.S. government's official web portal to all federal, state and local government web resources and services.